sensor_id;sensor_type;location;lat;lon;timestamp;pressure;altitude;pressure_sealevel;temperature;humidity
46946;BME280;32679;40.810;14.498;2023-04-20T00:01:29;99965.84;;;11.06;100.00
46946;BME280;32679;40.810;14.498;2023-04-20T00:03:55;99963.84;;;11.03;100.00
46946;BME280;32679;40.810;14.498;2023-04-20T00:06:21;99964.88;;;10.95;100.00
46946;BME280;32679;40.810;14.498;2023-04-20T00:08:46;99962.88;;;10.95;100.00
46946;BME280;32679;40.810;14.498;2023-04-20T00:11:12;99959.53;;;10.86;100.00
46946;BME280;32679;40.810;14.498;2023-04-20T00:13:40;99955.28;;;10.92;100.00
46946;BME280;32679;40.810;14.498;2023-04-20T00:16:05;99944.59;;;10.94;100.00
46946;BME280;32679;40.810;14.498;2023-04-20T00:18:31;99956.94;;;10.97;100.00
46946;BME280;32679;40.810;14.498;2023-04-20T00:20:57;99955.00;;;10.97;100.00
46946;BME280;32679;40.810;14.498;2023-04-20T00:23:25;99951.75;;;10.95;100.00
46946;BME280;32679;40.810;14.498;2023-04-20T00:25:50;99940.06;;;10.86;100.00
46946;BME280;32679;40.810;14.498;2023-04-20T00:28:16;99940.06;;;10.86;100.00
46946;BME280;32679;40.810;14.498;2023-04-20T00:30:41;99929.69;;;10.83;100.00
46946;BME280;32679;40.810;14.498;2023-04-20T00:33:10;99940.56;;;10.92;100.00
46946;BME280;32679;40.810;14.498;2023-04-20T00:35:38;99936.03;;;10.84;100.00
46946;BME280;32679;40.810;14.498;2023-04-20T00:38:04;99931.47;;;10.95;100.00
46946;BME280;32679;40.810;14.498;2023-04-20T00:40:29;99931.53;;;10.98;100.00
46946;BME280;32679;40.810;14.498;2023-04-20T00:42:55;99929.06;;;10.93;100.00
46946;BME280;32679;40.810;14.498;2023-04-20T00:45:25;99929.38;;;10.88;100.00
46946;BME280;32679;40.810;14.498;2023-04-20T00:47:53;99923.66;;;10.81;100.00
46946;BME280;32679;40.810;14.498;2023-04-20T00:50:18;99934.78;;;10.81;100.00
46946;BME280;32679;40.810;14.498;2023-04-20T00:52:44;99930.78;;;10.79;100.00
46946;BME280;32679;40.810;14.498;2023-04-20T00:55:11;99928.22;;;10.70;100.00
46946;BME280;32679;40.810;14.498;2023-04-20T00:57:37;99921.75;;;10.62;100.00
46946;BME280;32679;40.810;14.498;2023-04-20T01:00:06;99921.63;;;10.55;100.00
46946;BME280;32679;40.810;14.498;2023-04-20T01:02:35;99915.09;;;10.47;100.00
46946;BME280;32679;40.810;14.498;2023-04-20T01:05:00;99918.47;;;10.57;100.00
46946;BME280;32679;40.810;14.498;2023-04-20T01:07:26;99911.22;;;10.52;100.00
46946;BME280;32679;40.810;14.498;2023-04-20T01:09:53;99914.38;;;10.51;100.00
46946;BME280;32679;40.810;14.498;2023-04-20T01:12:21;99916.72;;;10.48;100.00
46946;BME280;32679;40.810;14.498;2023-04-20T01:14:52;99911.22;;;10.52;100.00
46946;BME280;32679;40.810;14.498;2023-04-20T01:17:18;99908.75;;;10.47;100.00
46946;BME280;32679;40.810;14.498;2023-04-20T01:19:45;99910.00;;;10.49;100.00
46946;BME280;32679;40.810;14.498;2023-04-20T01:22:16;99912.69;;;10.46;100.00
46946;BME280;32679;40.810;14.498;2023-04-20T01:24:42;99914.38;;;10.51;100.00
46946;BME280;32679;40.810;14.498;2023-04-20T01:27:10;99910.31;;;10.44;100.00
46946;BME280;32679;40.810;14.498;2023-04-20T01:29:36;99905.59;;;10.48;100.00
46946;BME280;32679;40.810;14.498;2023-04-20T01:32:07;99897.41;;;10.36;100.00
46946;BME280;32679;40.810;14.498;2023-04-20T01:34:35;99894.22;;;10.34;100.00
46946;BME280;32679;40.810;14.498;2023-04-20T01:37:04;99900.56;;;10.35;100.00
46946;BME280;32679;40.810;14.498;2023-04-20T01:39:37;99898.09;;;10.30;100.00
46946;BME280;32679;40.810;14.498;2023-04-20T01:42:03;99891.66;;;10.26;100.00
46946;BME280;32679;40.810;14.498;2023-04-20T01:44:28;99888.50;;;10.27;100.00
46946;BME280;32679;40.810;14.498;2023-04-20T01:46:56;99888.66;;;10.34;100.00
46946;BME280;32679;40.810;14.498;2023-04-20T01:49:24;99887.78;;;10.30;100.00
46946;BME280;32679;40.810;14.498;2023-04-20T01:51:52;99883.19;;;10.22;100.00
46946;BME280;32679;40.810;14.498;2023-04-20T01:54:20;99887.53;;;10.19;100.00
46946;BME280;32679;40.810;14.498;2023-04-20T01:56:45;99881.00;;;10.12;100.00
46946;BME280;32679;40.810;14.498;2023-04-20T01:59:11;99881.00;;;10.12;100.00
46946;BME280;32679;40.810;14.498;2023-04-20T02:01:36;99880.00;;;10.20;100.00
46946;BME280;32679;40.810;14.498;2023-04-20T02:04:02;99874.84;;;10.22;100.00
46946;BME280;32679;40.810;14.498;2023-04-20T02:06:34;99869.91;;;10.12;100.00
46946;BME280;32679;40.810;14.498;2023-04-20T02:09:00;99869.03;;;10.08;100.00
46946;BME280;32679;40.810;14.498;2023-04-20T02:11:25;99858.66;;;10.05;100.00
46946;BME280;32679;40.810;14.498;2023-04-20T02:13:51;99868.25;;;10.07;100.00
46946;BME280;32679;40.810;14.498;2023-04-20T02:16:17;99862.91;;;9.98;100.00
46946;BME280;32679;40.810;14.498;2023-04-20T02:18:48;99864.94;;;10.02;100.00
46946;BME280;32679;40.810;14.498;2023-04-20T02:21:14;99862.53;;;10.00;100.00
46946;BME280;32679;40.810;14.498;2023-04-20T02:23:42;99863.31;;;10.01;100.00
46946;BME280;32679;40.810;14.498;2023-04-20T02:26:08;99867.28;;;10.00;100.00
46946;BME280;32679;40.810;14.498;2023-04-20T02:28:33;99858.13;;;9.99;100.00
46946;BME280;32679;40.810;14.498;2023-04-20T02:30:59;99860.13;;;9.98;100.00
46946;BME280;32679;40.810;14.498;2023-04-20T02:33:27;99855.28;;;9.95;100.00
46946;BME280;32679;40.810;14.498;2023-04-20T02:35:52;99863.31;;;10.01;100.00
46946;BME280;32679;40.810;14.498;2023-04-20T02:38:18;99859.59;;;9.93;100.00
46946;BME280;32679;40.810;14.498;2023-04-20T02:40:43;99858.06;;;9.95;100.00
46946;BME280;32679;40.810;14.498;2023-04-20T02:43:09;99860.53;;;10.01;100.00
46946;BME280;32679;40.810;14.498;2023-04-20T02:45:35;99850.75;;;9.87;100.00
46946;BME280;32679;40.810;14.498;2023-04-20T02:48:01;99851.34;;;9.96;100.00
46946;BME280;32679;40.810;14.498;2023-04-20T02:50:30;99854.25;;;10.04;100.00
46946;BME280;32679;40.810;14.498;2023-04-20T02:53:04;99843.31;;;9.91;100.00
46946;BME280;32679;40.810;14.498;2023-04-20T02:55:30;99850.00;;;9.90;100.00
46946;BME280;32679;40.810;14.498;2023-04-20T02:57:58;99848.50;;;9.93;100.00
46946;BME280;32679;40.810;14.498;2023-04-20T03:00:24;99849.28;;;9.93;100.00
46946;BME280;32679;40.810;14.498;2023-04-20T03:02:52;99846.09;;;9.91;100.00
46946;BME280;32679;40.810;14.498;2023-04-20T03:05:17;99840.38;;;9.84;100.00
46946;BME280;32679;40.810;14.498;2023-04-20T03:07:43;99839.84;;;9.79;100.00
46946;BME280;32679;40.810;14.498;2023-04-20T03:10:08;99846.22;;;9.79;100.00
46946;BME280;32679;40.810;14.498;2023-04-20T03:12:36;99844.19;;;9.76;100.00
46946;BME280;32679;40.810;14.498;2023-04-20T03:15:05;99849.75;;;9.76;100.00
46946;BME280;32679;40.810;14.498;2023-04-20T03:17:34;99853.69;;;9.75;100.00
46946;BME280;32679;40.810;14.498;2023-04-20T03:19:59;99849.22;;;9.70;100.00
46946;BME280;32679;40.810;14.498;2023-04-20T03:22:28;99844.41;;;9.67;100.00
46946;BME280;32679;40.810;14.498;2023-04-20T03:24:59;99842.00;;;9.66;100.00
46946;BME280;32679;40.810;14.498;2023-04-20T03:27:25;99842.78;;;9.66;100.00
46946;BME280;32679;40.810;14.498;2023-04-20T03:29:50;99841.25;;;9.69;100.00
46946;BME280;32679;40.810;14.498;2023-04-20T03:32:16;99839.94;;;9.63;100.00
46946;BME280;32679;40.810;14.498;2023-04-20T03:34:45;99842.00;;;9.66;100.00
46946;BME280;32679;40.810;14.498;2023-04-20T03:37:10;99834.75;;;9.61;100.00
46946;BME280;32679;40.810;14.498;2023-04-20T03:39:36;99835.47;;;9.58;100.00
46946;BME280;32679;40.810;14.498;2023-04-20T03:42:01;99840.31;;;9.61;100.00
46946;BME280;32679;40.810;14.498;2023-04-20T03:44:27;99841.75;;;9.55;100.00
46946;BME280;32679;40.810;14.498;2023-04-20T03:46:55;99840.78;;;9.48;100.00
46946;BME280;32679;40.810;14.498;2023-04-20T03:49:24;99841.69;;;9.52;100.00
46946;BME280;32679;40.810;14.498;2023-04-20T03:51:52;99840.97;;;9.55;100.00
46946;BME280;32679;40.810;14.498;2023-04-20T03:54:22;99842.41;;;9.49;100.00
46946;BME280;32679;40.810;14.498;2023-04-20T03:56:47;99836.41;;;9.47;100.00
46946;BME280;32679;40.810;14.498;2023-04-20T03:59:14;99841.06;;;9.42;100.00
46946;BME280;32679;40.810;14.498;2023-04-20T04:01:44;99833.19;;;9.44;100.00
46946;BME280;32679;40.810;14.498;2023-04-20T04:04:10;99835.22;;;9.48;100.00
46946;BME280;32679;40.810;14.498;2023-04-20T04:06:36;99837.59;;;9.45;100.00
46946;BME280;32679;40.810;14.498;2023-04-20T04:09:01;99830.13;;;9.50;100.00
46946;BME280;32679;40.810;14.498;2023-04-20T04:11:27;99838.47;;;9.50;100.00
46946;BME280;32679;40.810;14.498;2023-04-20T04:13:56;99831.22;;;9.45;100.00
46946;BME280;32679;40.810;14.498;2023-04-20T04:16:27;99826.47;;;9.45;100.00
46946;BME280;32679;40.810;14.498;2023-04-20T04:18:53;99843.13;;;9.45;100.00
46946;BME280;32679;40.810;14.498;2023-04-20T04:21:18;99836.25;;;9.39;100.00
46946;BME280;32679;40.810;14.498;2023-04-20T04:23:47;99842.41;;;9.49;100.00
46946;BME280;32679;40.810;14.498;2023-04-20T04:26:13;99840.66;;;9.40;100.00
46946;BME280;32679;40.810;14.498;2023-04-20T04:28:40;99841.81;;;9.39;100.00
46946;BME280;32679;40.810;14.498;2023-04-20T04:31:09;99843.13;;;9.45;100.00
46946;BME280;32679;40.810;14.498;2023-04-20T04:33:36;99842.41;;;9.49;100.00
46946;BME280;32679;40.810;14.498;2023-04-20T04:36:02;99846.50;;;9.55;100.00
46946;BME280;32679;40.810;14.498;2023-04-20T04:38:28;99849.72;;;9.57;100.00
46946;BME280;32679;40.810;14.498;2023-04-20T04:40:56;99848.13;;;9.75;100.00
46946;BME280;32679;40.810;14.498;2023-04-20T04:43:24;99852.25;;;10.43;100.00
46946;BME280;32679;40.810;14.498;2023-04-20T04:45:52;99856.06;;;11.04;100.00
46946;BME280;32679;40.810;14.498;2023-04-20T04:48:22;99860.38;;;11.54;100.00
46946;BME280;32679;40.810;14.498;2023-04-20T04:50:48;99865.91;;;12.11;100.00
46946;BME280;32679;40.810;14.498;2023-04-20T04:53:16;99862.41;;;12.58;100.00
46946;BME280;32679;40.810;14.498;2023-04-20T04:55:41;99875.97;;;13.04;100.00
46946;BME280;32679;40.810;14.498;2023-04-20T04:58:09;99844.72;;;13.39;98.27
46946;BME280;32679;40.810;14.498;2023-04-20T05:00:34;99876.19;;;14.05;94.59
46946;BME280;32679;40.810;14.498;2023-04-20T05:03:05;99881.59;;;14.60;90.34
46946;BME280;32679;40.810;14.498;2023-04-20T05:05:30;99878.03;;;15.13;86.47
46946;BME280;32679;40.810;14.498;2023-04-20T05:08:01;99881.16;;;15.69;84.06
46946;BME280;32679;40.810;14.498;2023-04-20T05:10:26;99882.97;;;16.18;79.37
46946;BME280;32679;40.810;14.498;2023-04-20T05:12:52;99882.34;;;16.63;76.57
46946;BME280;32679;40.810;14.498;2023-04-20T05:15:17;99886.88;;;17.05;70.91
46946;BME280;32679;40.810;14.498;2023-04-20T05:17:46;99890.34;;;17.61;70.66
46946;BME280;32679;40.810;14.498;2023-04-20T05:20:13;99889.06;;;17.28;69.73
46946;BME280;32679;40.810;14.498;2023-04-20T05:22:41;99892.84;;;18.27;68.90
46946;BME280;32679;40.810;14.498;2023-04-20T05:25:07;99895.72;;;18.81;65.64
46946;BME280;32679;40.810;14.498;2023-04-20T05:27:40;99899.78;;;19.27;62.94
46946;BME280;32679;40.810;14.498;2023-04-20T05:30:11;99892.44;;;19.57;61.09
46946;BME280;32679;40.810;14.498;2023-04-20T05:32:39;99897.19;;;19.83;57.94
46946;BME280;32679;40.810;14.498;2023-04-20T05:35:07;99912.84;;;20.48;57.85
46946;BME280;32679;40.810;14.498;2023-04-20T05:37:35;99899.50;;;20.84;56.49
46946;BME280;32679;40.810;14.498;2023-04-20T05:40:00;99898.72;;;21.16;54.67
46946;BME280;32679;40.810;14.498;2023-04-20T05:42:29;99897.25;;;20.59;56.81
46946;BME280;32679;40.810;14.498;2023-04-20T05:44:54;99905.81;;;20.16;56.37
46946;BME280;32679;40.810;14.498;2023-04-20T05:47:22;99903.94;;;19.89;59.98
46946;BME280;32679;40.810;14.498;2023-04-20T05:49:48;99901.59;;;19.65;59.06
46946;BME280;32679;40.810;14.498;2023-04-20T05:52:16;99897.50;;;19.89;53.35
46946;BME280;32679;40.810;14.498;2023-04-20T05:54:41;99894.28;;;19.67;59.00
46946;BME280;32679;40.810;14.498;2023-04-20T05:57:07;99898.94;;;19.07;58.25
46946;BME280;32679;40.810;14.498;2023-04-20T05:59:32;99897.09;;;18.70;64.75
46946;BME280;32679;40.810;14.498;2023-04-20T06:02:01;99905.66;;;18.90;64.66
46946;BME280;32679;40.810;14.498;2023-04-20T06:04:29;99914.59;;;18.84;63.30
46946;BME280;32679;40.810;14.498;2023-04-20T06:07:00;99904.63;;;19.03;63.76
46946;BME280;32679;40.810;14.498;2023-04-20T06:09:26;99903.84;;;19.26;61.10
46946;BME280;32679;40.810;14.498;2023-04-20T06:11:57;99903.16;;;19.42;61.01
46946;BME280;32679;40.810;14.498;2023-04-20T06:14:30;99907.34;;;19.34;61.06
46946;BME280;32679;40.810;14.498;2023-04-20T06:16:55;99909.13;;;19.48;58.71
46946;BME280;32679;40.810;14.498;2023-04-20T06:19:21;99903.50;;;19.71;58.83
46946;BME280;32679;40.810;14.498;2023-04-20T06:21:46;99908.50;;;19.83;59.29
46946;BME280;32679;40.810;14.498;2023-04-20T06:24:14;99926.03;;;19.48;59.69
46946;BME280;32679;40.810;14.498;2023-04-20T06:26:40;99915.81;;;20.21;55.53
46946;BME280;32679;40.810;14.498;2023-04-20T06:29:05;99924.06;;;20.31;54.81
46946;BME280;32679;40.810;14.498;2023-04-20T06:31:31;99920.75;;;20.36;54.47
46946;BME280;32679;40.810;14.498;2023-04-20T06:34:00;99923.66;;;21.05;53.01
46946;BME280;32679;40.810;14.498;2023-04-20T06:36:25;99920.09;;;20.49;52.10
46946;BME280;32679;40.810;14.498;2023-04-20T06:38:51;99923.38;;;20.83;55.10
46946;BME280;32679;40.810;14.498;2023-04-20T06:41:20;99916.16;;;20.99;54.53
46946;BME280;32679;40.810;14.498;2023-04-20T06:43:50;99921.81;;;20.99;54.27
46946;BME280;32679;40.810;14.498;2023-04-20T06:46:15;99923.50;;;21.90;51.68
46946;BME280;32679;40.810;14.498;2023-04-20T06:48:46;99933.81;;;21.03;54.28
46946;BME280;32679;40.810;14.498;2023-04-20T06:51:14;99921.38;;;21.33;55.07
46946;BME280;32679;40.810;14.498;2023-04-20T06:53:39;99928.41;;;20.56;55.51
46946;BME280;32679;40.810;14.498;2023-04-20T06:56:05;99925.50;;;21.12;55.50
46946;BME280;32679;40.810;14.498;2023-04-20T06:58:34;99924.28;;;21.45;53.62
46946;BME280;32679;40.810;14.498;2023-04-20T07:00:59;99928.78;;;21.27;52.65
46946;BME280;32679;40.810;14.498;2023-04-20T07:03:25;99932.00;;;20.76;51.73
46946;BME280;32679;40.810;14.498;2023-04-20T07:05:50;99940.69;;;20.85;51.14
46946;BME280;32679;40.810;14.498;2023-04-20T07:08:16;99932.22;;;21.02;49.92
46946;BME280;32679;40.810;14.498;2023-04-20T07:10:41;99932.22;;;21.18;50.46
46946;BME280;32679;40.810;14.498;2023-04-20T07:13:07;99925.66;;;20.72;50.49
46946;BME280;32679;40.810;14.498;2023-04-20T07:15:32;99927.34;;;20.50;50.79
46946;BME280;32679;40.810;14.498;2023-04-20T07:18:00;99939.13;;;21.17;49.66
46946;BME280;32679;40.810;14.498;2023-04-20T07:20:28;99935.44;;;21.98;48.70
46946;BME280;32679;40.810;14.498;2023-04-20T07:22:53;99934.41;;;22.21;46.35
46946;BME280;32679;40.810;14.498;2023-04-20T07:25:21;99933.19;;;22.35;46.17
46946;BME280;32679;40.810;14.498;2023-04-20T07:27:49;99922.91;;;21.83;46.67
46946;BME280;32679;40.810;14.498;2023-04-20T07:30:15;99920.50;;;20.67;51.00
46946;BME280;32679;40.810;14.498;2023-04-20T07:32:40;99927.47;;;21.64;50.32
46946;BME280;32679;40.810;14.498;2023-04-20T07:35:09;99919.81;;;21.77;48.09
46946;BME280;32679;40.810;14.498;2023-04-20T07:37:37;99926.91;;;22.56;46.64
46946;BME280;32679;40.810;14.498;2023-04-20T07:40:06;99921.47;;;23.25;43.67
46946;BME280;32679;40.810;14.498;2023-04-20T07:42:33;99925.63;;;23.72;43.16
46946;BME280;32679;40.810;14.498;2023-04-20T07:45:01;99930.78;;;23.86;42.68
46946;BME280;32679;40.810;14.498;2023-04-20T07:47:26;99921.41;;;23.04;43.00
46946;BME280;32679;40.810;14.498;2023-04-20T07:49:54;99918.81;;;22.96;45.24
46946;BME280;32679;40.810;14.498;2023-04-20T07:52:22;99923.06;;;22.75;43.42
46946;BME280;32679;40.810;14.498;2023-04-20T07:54:48;99917.59;;;22.56;44.38
46946;BME280;32679;40.810;14.498;2023-04-20T07:57:13;99915.22;;;21.67;45.89
46946;BME280;32679;40.810;14.498;2023-04-20T07:59:39;99924.56;;;22.93;43.69
46946;BME280;32679;40.810;14.498;2023-04-20T08:02:07;99918.97;;;22.77;43.30
46946;BME280;32679;40.810;14.498;2023-04-20T08:04:35;99911.38;;;20.39;50.96
46946;BME280;32679;40.810;14.498;2023-04-20T08:07:01;99911.03;;;21.10;48.25
46946;BME280;32679;40.810;14.498;2023-04-20T08:09:27;99907.22;;;21.49;49.47
46946;BME280;32679;40.810;14.498;2023-04-20T08:11:54;99903.50;;;21.52;48.47
46946;BME280;32679;40.810;14.498;2023-04-20T08:14:22;99910.03;;;20.48;50.77
46946;BME280;32679;40.810;14.498;2023-04-20T08:16:49;99899.88;;;20.30;50.68
46946;BME280;32679;40.810;14.498;2023-04-20T08:19:18;99894.78;;;20.41;51.11
46946;BME280;32679;40.810;14.498;2023-04-20T08:21:46;99896.34;;;20.26;52.03
46946;BME280;32679;40.810;14.498;2023-04-20T08:24:11;99894.13;;;20.90;51.25
46946;BME280;32679;40.810;14.498;2023-04-20T08:26:38;99916.41;;;20.88;50.26
46946;BME280;32679;40.810;14.498;2023-04-20T08:29:04;99900.38;;;21.14;48.95
46946;BME280;32679;40.810;14.498;2023-04-20T08:31:30;99911.09;;;22.01;46.72
46946;BME280;32679;40.810;14.498;2023-04-20T08:33:58;99915.66;;;23.42;44.23
46946;BME280;32679;40.810;14.498;2023-04-20T08:36:24;99916.06;;;23.06;43.23
46946;BME280;32679;40.810;14.498;2023-04-20T08:38:54;99911.41;;;23.12;43.04
46946;BME280;32679;40.810;14.498;2023-04-20T08:43:48;99891.69;;;22.28;43.65
46946;BME280;32679;40.810;14.498;2023-04-20T08:46:16;99910.50;;;22.89;43.46
46946;BME280;32679;40.810;14.498;2023-04-20T08:48:44;99908.16;;;22.33;44.25
46946;BME280;32679;40.810;14.498;2023-04-20T08:51:16;99904.13;;;22.85;42.58
46946;BME280;32679;40.810;14.498;2023-04-20T08:53:42;99915.81;;;22.87;41.66
46946;BME280;32679;40.810;14.498;2023-04-20T08:56:08;99894.75;;;23.01;41.08
46946;BME280;32679;40.810;14.498;2023-04-20T08:58:36;99883.31;;;23.39;40.09
46946;BME280;32679;40.810;14.498;2023-04-20T09:01:10;99897.50;;;24.09;40.01
46946;BME280;32679;40.810;14.498;2023-04-20T09:03:38;99888.41;;;24.67;38.37
46946;BME280;32679;40.810;14.498;2023-04-20T09:06:04;99889.81;;;23.96;38.35
46946;BME280;32679;40.810;14.498;2023-04-20T09:08:38;99888.06;;;23.42;39.69
46946;BME280;32679;40.810;14.498;2023-04-20T09:11:22;99879.25;;;23.97;38.87
46946;BME280;32679;40.810;14.498;2023-04-20T09:16:24;99884.97;;;22.89;39.78
46946;BME280;32679;40.810;14.498;2023-04-20T09:18:51;99874.50;;;23.24;39.13
46946;BME280;32679;40.810;14.498;2023-04-20T09:21:17;99869.63;;;23.94;37.41
46946;BME280;32679;40.810;14.498;2023-04-20T09:23:53;99869.66;;;24.47;37.97
46946;BME280;32679;40.810;14.498;2023-04-20T09:26:19;99868.69;;;24.19;36.66
46946;BME280;32679;40.810;14.498;2023-04-20T09:28:45;99860.66;;;22.63;40.30
46946;BME280;32679;40.810;14.498;2023-04-20T09:31:20;99861.50;;;23.36;39.26
46946;BME280;32679;40.810;14.498;2023-04-20T09:34:01;99865.50;;;23.26;37.44
46946;BME280;32679;40.810;14.498;2023-04-20T09:36:46;99860.75;;;23.58;37.67
46946;BME280;32679;40.810;14.498;2023-04-20T09:39:21;99857.09;;;23.35;39.29
46946;BME280;32679;40.810;14.498;2023-04-20T09:41:47;99859.84;;;23.61;38.72
46946;BME280;32679;40.810;14.498;2023-04-20T09:44:16;99851.31;;;23.26;38.71
46946;BME280;32679;40.810;14.498;2023-04-20T09:46:43;99852.50;;;23.50;37.51
46946;BME280;32679;40.810;14.498;2023-04-20T09:49:13;99853.69;;;23.75;37.46
46946;BME280;32679;40.810;14.498;2023-04-20T09:51:40;99853.34;;;23.95;38.47
46946;BME280;32679;40.810;14.498;2023-04-20T09:54:12;99852.63;;;22.61;40.77
46946;BME280;32679;40.810;14.498;2023-04-20T09:56:38;99850.25;;;22.85;40.14
46946;BME280;32679;40.810;14.498;2023-04-20T09:59:04;99851.09;;;23.33;38.40
46946;BME280;32679;40.810;14.498;2023-04-20T10:01:34;99834.25;;;23.73;37.63
46946;BME280;32679;40.810;14.498;2023-04-20T10:04:05;99841.31;;;23.34;38.55
46946;BME280;32679;40.810;14.498;2023-04-20T10:06:34;99843.63;;;23.14;38.90
46946;BME280;32679;40.810;14.498;2023-04-20T10:09:03;99838.78;;;22.76;40.13
46946;BME280;32679;40.810;14.498;2023-04-20T10:11:30;99828.41;;;21.77;42.02
46946;BME280;32679;40.810;14.498;2023-04-20T10:14:13;99828.72;;;21.37;42.83
46946;BME280;32679;40.810;14.498;2023-04-20T10:16:40;99826.44;;;20.83;44.20
46946;BME280;32679;40.810;14.498;2023-04-20T10:19:09;99827.56;;;20.85;45.05
46946;BME280;32679;40.810;14.498;2023-04-20T10:21:47;99826.19;;;20.93;44.16
46946;BME280;32679;40.810;14.498;2023-04-20T10:24:14;99830.81;;;22.20;42.58
46946;BME280;32679;40.810;14.498;2023-04-20T10:26:43;99826.13;;;23.28;40.64
46946;BME280;32679;40.810;14.498;2023-04-20T10:29:25;99815.31;;;24.23;38.90
46946;BME280;32679;40.810;14.498;2023-04-20T10:31:51;99818.13;;;24.36;39.92
46946;BME280;32679;40.810;14.498;2023-04-20T10:34:31;99816.97;;;25.23;38.25
46946;BME280;32679;40.810;14.498;2023-04-20T10:37:08;99820.38;;;24.91;39.34
46946;BME280;32679;40.810;14.498;2023-04-20T10:39:42;99810.44;;;25.04;40.81
46946;BME280;32679;40.810;14.498;2023-04-20T10:42:07;99812.56;;;25.68;39.15
46946;BME280;32679;40.810;14.498;2023-04-20T10:44:33;99811.00;;;25.49;38.84
46946;BME280;32679;40.810;14.498;2023-04-20T10:47:01;99807.00;;;24.29;41.23
46946;BME280;32679;40.810;14.498;2023-04-20T10:49:28;99797.13;;;24.83;41.66
46946;BME280;32679;40.810;14.498;2023-04-20T10:51:55;99797.41;;;24.67;40.89
46946;BME280;32679;40.810;14.498;2023-04-20T10:54:21;99791.19;;;24.59;41.43
46946;BME280;32679;40.810;14.498;2023-04-20T10:56:51;99783.25;;;24.54;40.06
46946;BME280;32679;40.810;14.498;2023-04-20T10:59:22;99788.97;;;25.40;39.48
46946;BME280;32679;40.810;14.498;2023-04-20T11:01:50;99785.28;;;24.94;39.19
46946;BME280;32679;40.810;14.498;2023-04-20T11:04:28;99776.34;;;24.64;39.02
46946;BME280;32679;40.810;14.498;2023-04-20T11:07:03;99767.81;;;24.64;39.77
46946;BME280;32679;40.810;14.498;2023-04-20T11:09:29;99768.06;;;24.17;40.04
46946;BME280;32679;40.810;14.498;2023-04-20T11:12:11;99768.59;;;23.49;40.64
46946;BME280;32679;40.810;14.498;2023-04-20T11:14:51;99768.88;;;24.17;39.55
46946;BME280;32679;40.810;14.498;2023-04-20T11:17:17;99752.06;;;23.57;39.77
46946;BME280;32679;40.810;14.498;2023-04-20T11:19:42;99759.91;;;24.28;38.82
46946;BME280;32679;40.810;14.498;2023-04-20T11:22:20;99757.78;;;25.00;36.69
46946;BME280;32679;40.810;14.498;2023-04-20T11:24:48;99751.56;;;24.34;38.15
46946;BME280;32679;40.810;14.498;2023-04-20T11:27:20;99753.44;;;23.96;38.50
46946;BME280;32679;40.810;14.498;2023-04-20T11:29:58;99751.94;;;23.61;39.73
46946;BME280;32679;40.810;14.498;2023-04-20T11:32:26;99745.50;;;23.82;40.43
46946;BME280;32679;40.810;14.498;2023-04-20T11:35:04;99745.31;;;24.08;40.15
46946;BME280;32679;40.810;14.498;2023-04-20T11:37:33;99747.06;;;23.83;40.02
46946;BME280;32679;40.810;14.498;2023-04-20T11:40:05;99746.25;;;24.36;37.88
46946;BME280;32679;40.810;14.498;2023-04-20T11:42:32;99747.50;;;24.93;36.44
46946;BME280;32679;40.810;14.498;2023-04-20T11:45:00;99745.94;;;24.12;36.83
46946;BME280;32679;40.810;14.498;2023-04-20T11:49:53;99739.72;;;23.95;39.09
46946;BME280;32679;40.810;14.498;2023-04-20T11:52:19;99738.72;;;24.20;38.16
46946;BME280;32679;40.810;14.498;2023-04-20T11:54:50;99735.03;;;23.79;40.17
46946;BME280;32679;40.810;14.498;2023-04-20T11:57:15;99731.22;;;23.29;39.13
46946;BME280;32679;40.810;14.498;2023-04-20T11:59:41;99729.28;;;23.26;40.42
46946;BME280;32679;40.810;14.498;2023-04-20T12:02:12;99732.97;;;23.58;39.17
46946;BME280;32679;40.810;14.498;2023-04-20T12:04:38;99728.75;;;23.84;39.60
46946;BME280;32679;40.810;14.498;2023-04-20T12:07:03;99731.22;;;23.51;38.65
46946;BME280;32679;40.810;14.498;2023-04-20T12:09:29;99720.94;;;23.66;37.77
46946;BME280;32679;40.810;14.498;2023-04-20T12:11:55;99723.13;;;23.06;39.01
46946;BME280;32679;40.810;14.498;2023-04-20T12:14:21;99718.38;;;23.90;37.52
46946;BME280;32679;40.810;14.498;2023-04-20T12:16:49;99711.53;;;23.78;39.67
46946;BME280;32679;40.810;14.498;2023-04-20T12:19:15;99718.00;;;23.79;40.16
46946;BME280;32679;40.810;14.498;2023-04-20T12:21:40;99709.47;;;23.79;39.71
46946;BME280;32679;40.810;14.498;2023-04-20T12:24:06;99710.16;;;23.17;39.27
46946;BME280;32679;40.810;14.498;2023-04-20T12:26:32;99706.06;;;23.18;39.89
46946;BME280;32679;40.810;14.498;2023-04-20T12:29:00;99702.75;;;22.85;40.02
46946;BME280;32679;40.810;14.498;2023-04-20T12:31:28;99702.31;;;22.74;39.65
46946;BME280;32679;40.810;14.498;2023-04-20T12:33:53;99705.16;;;22.74;40.23
46946;BME280;32679;40.810;14.498;2023-04-20T12:36:24;99700.78;;;22.47;40.33
46946;BME280;32679;40.810;14.498;2023-04-20T12:38:53;99688.84;;;23.13;39.56
46946;BME280;32679;40.810;14.498;2023-04-20T12:41:20;99693.00;;;22.86;40.20
46946;BME280;32679;40.810;14.498;2023-04-20T12:43:51;99700.56;;;22.04;37.42
46946;BME280;32679;40.810;14.498;2023-04-20T12:46:16;99698.09;;;22.06;36.65
46946;BME280;32679;40.810;14.498;2023-04-20T12:48:44;99701.69;;;21.68;39.33
46946;BME280;32679;40.810;14.498;2023-04-20T12:51:11;99692.59;;;21.73;39.69
46946;BME280;32679;40.810;14.498;2023-04-20T12:53:39;99690.97;;;22.14;40.33
46946;BME280;32679;40.810;14.498;2023-04-20T12:56:05;99681.88;;;22.32;39.34
46946;BME280;32679;40.810;14.498;2023-04-20T12:58:31;99682.81;;;22.16;41.00